Time;durP1;ratioP1;P1;durP2;ratioP2;P2;SDS_P1;SDS_P2;PMS_P1;PMS_P2;Temp;Humidity;BMP_temperature;BMP_pressure;BME280_temperature;BME280_humidity;BME280_pressure;Samples;Min_cycle;Max_cycle;Signal;HPM_P1;HPM_P2
2021/03/14 06:00:43;;;;;;;1.80;1.30;;;;;;;;;;5075869;28;20414;-60
2021/03/14 06:03:09;;;;;;;9.65;1.58;;;;;;;;;;5073748;28;20027;-60
2021/03/14 06:05:36;;;;;;;2.15;1.95;;;;;;;;;;5076910;28;20103;-60
2021/03/14 06:08:03;;;;;;;4.80;0.90;;;;;;;;;;5073401;28;20034;-60
2021/03/14 06:10:30;;;;;;;0.20;0.20;;;;;;;;;;5068122;28;20021;-60
2021/03/14 06:12:56;;;;;;;3.72;0.75;;;;;;;;;;5069142;28;20070;-60
2021/03/14 06:15:22;;;;;;;8.57;0.98;;;;;;;;;;5070928;28;20017;-58
2021/03/14 06:17:48;;;;;;;0.30;0.30;;;;;;;;;;5074214;28;20017;-60
2021/03/14 06:20:33;;;;;;;12.38;1.75;;;;;;;;;;5072459;28;20028;-60
2021/03/14 06:23:06;;;;;;;3.97;0.95;;;;;;;;;;5074588;28;20028;-60
2021/03/14 06:25:32;;;;;;;2.55;0.63;;;;;;;;;;5079110;28;20044;-60
2021/03/14 06:27:58;;;;;;;0.40;0.40;;;;;;;;;;5078423;28;20024;-60
2021/03/14 06:30:28;;;;;;;2.92;1.35;;;;;;;;;;5073092;28;20051;-60
2021/03/14 06:33:09;;;;;;;2.67;0.52;;;;;;;;;;5071049;28;20103;-60
2021/03/14 06:35:39;;;;;;;5.95;1.08;;;;;;;;;;5073515;28;20028;-59
2021/03/14 06:38:17;;;;;;;0.70;0.65;;;;;;;;;;5073932;28;20167;-60
2021/03/14 06:40:44;;;;;;;0.20;0.20;;;;;;;;;;5072442;28;20086;-59
2021/03/14 06:43:14;;;;;;;0.17;0.17;;;;;;;;;;5085837;28;20028;-59
2021/03/14 06:45:40;;;;;;;0.20;0.20;;;;;;;;;;5066516;28;20039;-59
2021/03/14 06:48:07;;;;;;;0.30;0.25;;;;;;;;;;5070996;28;20032;-60
2021/03/14 06:50:34;;;;;;;0.17;0.17;;;;;;;;;;5072323;28;20072;-60
2021/03/14 06:53:07;;;;;;;2.15;0.28;;;;;;;;;;5074259;28;20013;-59
2021/03/14 06:55:33;;;;;;;0.10;0.10;;;;;;;;;;5077709;28;20090;-59
2021/03/14 06:58:19;;;;;;;16.48;2.08;;;;;;;;;;5064497;28;20459;-60
2021/03/14 07:01:05;;;;;;;7.93;2.83;;;;;;;;;;5055327;28;20063;-60
2021/03/14 07:03:31;;;;;;;3.72;0.38;;;;;;;;;;5048700;28;20441;-60
2021/03/14 07:06:15;;;;;;;1.48;0.65;;;;;;;;;;5048949;28;20032;-60
2021/03/14 07:08:41;;;;;;;3.97;0.43;;;;;;;;;;5051415;28;20039;-59
2021/03/14 07:11:08;;;;;;;4.03;0.85;;;;;;;;;;5049341;28;20033;-60
2021/03/14 07:13:38;;;;;;;6.32;0.30;;;;;;;;;;5052052;28;20036;-60
2021/03/14 07:16:04;;;;;;;2.97;0.63;;;;;;;;;;5051419;28;20024;-59
2021/03/14 07:18:32;;;;;;;6.28;1.00;;;;;;;;;;5051823;28;20510;-60
2021/03/14 07:20:58;;;;;;;2.55;0.95;;;;;;;;;;5051854;28;20013;-60
2021/03/14 07:23:34;;;;;;;0.20;0.20;;;;;;;;;;5052307;28;20059;-60
2021/03/14 07:26:00;;;;;;;3.53;1.27;;;;;;;;;;5052200;28;20025;-60
2021/03/14 07:28:27;;;;;;;0.20;0.20;;;;;;;;;;5052158;28;20071;-60
2021/03/14 07:30:54;;;;;;;2.47;1.13;;;;;;;;;;5051060;28;20666;-60
2021/03/14 07:33:20;;;;;;;0.10;0.10;;;;;;;;;;5051061;28;20032;-60
2021/03/14 07:35:47;;;;;;;5.32;0.50;;;;;;;;;;5051360;28;20029;-60
2021/03/14 07:38:13;;;;;;;4.03;0.77;;;;;;;;;;5051345;28;20037;-59
2021/03/14 07:40:39;;;;;;;7.13;4.13;;;;;;;;;;5051911;28;20032;-60
2021/03/14 07:43:06;;;;;;;0.10;0.10;;;;;;;;;;5051153;28;20050;-60
2021/03/14 07:45:33;;;;;;;0.30;0.30;;;;;;;;;;5049394;28;20029;-60
2021/03/14 07:48:01;;;;;;;0.20;0.20;;;;;;;;;;5050731;28;20291;-60
2021/03/14 07:50:28;;;;;;;22.45;1.75;;;;;;;;;;5051296;28;20032;-60
2021/03/14 07:52:57;;;;;;;12.70;1.55;;;;;;;;;;5050845;28;20017;-60
2021/03/14 07:55:23;;;;;;;0.20;0.20;;;;;;;;;;5051493;28;20048;-59
2021/03/14 07:57:52;;;;;;;2.58;0.77;;;;;;;;;;5050582;28;20025;-60
2021/03/14 08:00:28;;;;;;;0.10;0.10;;;;;;;;;;5050519;28;20041;-60
2021/03/14 08:02:58;;;;;;;7.78;1.55;;;;;;;;;;5050479;28;20482;-60
2021/03/14 08:05:40;;;;;;;0.10;0.10;;;;;;;;;;5048529;28;20067;-59
2021/03/14 08:08:12;;;;;;;0.20;0.20;;;;;;;;;;5050636;28;20089;-60
2021/03/14 08:10:42;;;;;;;4.72;1.45;;;;;;;;;;5051615;28;20029;-60
2021/03/14 08:13:14;;;;;;;2.45;0.47;;;;;;;;;;5049994;28;20056;-60
2021/03/14 08:15:41;;;;;;;1.98;0.20;;;;;;;;;;5050444;28;20033;-60
2021/03/14 08:18:07;;;;;;;0.10;0.10;;;;;;;;;;5049457;28;20124;-60
2021/03/14 08:20:46;;;;;;;10.05;1.02;;;;;;;;;;5051305;28;20094;-60
2021/03/14 08:23:18;;;;;;;2.08;0.85;;;;;;;;;;5051527;28;20064;-59
2021/03/14 08:25:44;;;;;;;3.63;0.77;;;;;;;;;;5049198;28;20573;-60
2021/03/14 08:28:23;;;;;;;0.90;0.40;;;;;;;;;;5048911;28;20037;-60
2021/03/14 08:30:56;;;;;;;4.65;0.55;;;;;;;;;;5048656;28;20035;-60
2021/03/14 08:33:25;;;;;;;4.63;0.77;;;;;;;;;;5049770;28;20710;-60
2021/03/14 08:36:04;;;;;;;8.02;1.13;;;;;;;;;;5049571;28;20376;-60
2021/03/14 08:38:35;;;;;;;0.65;0.40;;;;;;;;;;5051015;28;20536;-60
2021/03/14 08:41:17;;;;;;;0.10;0.10;;;;;;;;;;5051355;28;20057;-60
2021/03/14 08:43:46;;;;;;;6.60;1.75;;;;;;;;;;5063638;28;20124;-59
2021/03/14 08:46:19;;;;;;;4.65;1.02;;;;;;;;;;5050440;28;20128;-60
2021/03/14 08:48:48;;;;;;;6.97;1.35;;;;;;;;;;5051565;28;20052;-59
2021/03/14 08:51:14;;;;;;;0.20;0.20;;;;;;;;;;5051401;28;20025;-60
2021/03/14 08:53:44;;;;;;;32.95;1.48;;;;;;;;;;5049702;28;20135;-60
2021/03/14 08:56:23;;;;;;;8.40;0.75;;;;;;;;;;5036901;28;20136;-60
2021/03/14 08:59:08;;;;;;;10.13;1.33;;;;;;;;;;5032087;28;20396;-60
2021/03/14 09:01:37;;;;;;;1.27;0.68;;;;;;;;;;5037132;28;20029;-60
2021/03/14 09:04:16;;;;;;;1.15;1.15;;;;;;;;;;5048226;28;20040;-59
2021/03/14 09:06:50;;;;;;;1.75;0.52;;;;;;;;;;5044149;28;20036;-60
2021/03/14 09:09:21;;;;;;;3.10;0.45;;;;;;;;;;5047953;28;20022;-59
2021/03/14 09:12:17;;;;;;;0.85;0.45;;;;;;;;;;5043704;28;20025;-59
2021/03/14 09:15:08;;;;;;;5.47;1.95;;;;;;;;;;5044144;28;20040;-60
2021/03/14 09:17:43;;;;;;;2.05;0.68;;;;;;;;;;5044703;28;20028;-60
2021/03/14 09:20:10;;;;;;;1.17;0.25;;;;;;;;;;5064155;28;20032;-60
2021/03/14 09:22:41;;;;;;;0.10;0.10;;;;;;;;;;5034255;28;20117;-60
2021/03/14 09:25:16;;;;;;;6.07;1.92;;;;;;;;;;5064432;28;20083;-59
2021/03/14 09:27:44;;;;;;;11.70;1.83;;;;;;;;;;5042926;28;20064;-60
2021/03/14 09:30:13;;;;;;;23.38;1.48;;;;;;;;;;5019171;28;20483;-60
2021/03/14 09:32:42;;;;;;;10.38;0.55;;;;;;;;;;5045141;28;20021;-60
2021/03/14 09:35:19;;;;;;;4.63;1.27;;;;;;;;;;5065773;28;20082;-60
2021/03/14 09:37:47;;;;;;;0.10;0.10;;;;;;;;;;5047879;28;20036;-59
2021/03/14 09:40:16;;;;;;;1.10;0.47;;;;;;;;;;5047835;28;20037;-60
2021/03/14 09:42:43;;;;;;;3.75;2.45;;;;;;;;;;5049437;28;20120;-59
2021/03/14 09:45:22;;;;;;;0.52;0.30;;;;;;;;;;5048456;28;20029;-60
2021/03/14 09:48:01;;;;;;;10.07;2.00;;;;;;;;;;5048184;28;20525;-60
2021/03/14 09:50:41;;;;;;;0.10;0.10;;;;;;;;;;5048909;28;20021;-60
2021/03/14 09:53:09;;;;;;;0.25;0.25;;;;;;;;;;5049377;28;20029;-60
2021/03/14 09:55:37;;;;;;;11.35;1.48;;;;;;;;;;5049786;28;20422;-60
2021/03/14 09:58:04;;;;;;;4.15;0.52;;;;;;;;;;5048898;28;20024;-60
2021/03/14 10:00:31;;;;;;;2.03;1.58;;;;;;;;;;5048624;28;20051;-62
2021/03/14 10:03:06;;;;;;;0.30;0.30;;;;;;;;;;5048599;28;20029;-60
2021/03/14 10:05:52;;;;;;;16.73;1.60;;;;;;;;;;5050746;28;20529;-60
2021/03/14 10:08:24;;;;;;;12.38;1.85;;;;;;;;;;5050111;28;20037;-59
2021/03/14 10:10:52;;;;;;;2.42;2.05;;;;;;;;;;5048812;28;20036;-60
2021/03/14 10:13:20;;;;;;;3.45;0.73;;;;;;;;;;5046415;28;20024;-60
2021/03/14 10:15:50;;;;;;;3.70;1.90;;;;;;;;;;5048426;28;20021;-60
2021/03/14 10:18:24;;;;;;;1.15;0.52;;;;;;;;;;5048700;28;20037;-60
2021/03/14 10:20:51;;;;;;;0.98;0.28;;;;;;;;;;5048333;28;20027;-60
2021/03/14 10:23:24;;;;;;;3.97;0.70;;;;;;;;;;5048919;28;20021;-60
2021/03/14 10:26:19;;;;;;;1.80;0.30;;;;;;;;;;5033604;28;20033;-60
2021/03/14 10:28:55;;;;;;;7.75;2.33;;;;;;;;;;5050016;28;20021;-60
2021/03/14 10:31:45;;;;;;;0.30;0.20;;;;;;;;;;5040914;28;20565;-60
2021/03/14 10:34:21;;;;;;;0.85;0.30;;;;;;;;;;5048547;28;20404;-60
2021/03/14 10:36:47;;;;;;;6.32;0.73;;;;;;;;;;5051329;28;20082;-60
2021/03/14 10:39:14;;;;;;;2.92;0.50;;;;;;;;;;5051401;28;20041;-60
2021/03/14 10:41:48;;;;;;;2.85;1.17;;;;;;;;;;5051222;28;20110;-59
2021/03/14 10:44:22;;;;;;;2.50;2.30;;;;;;;;;;5049726;28;20516;-60
2021/03/14 10:47:14;;;;;;;0.10;0.10;;;;;;;;;;5051844;28;20099;-59
2021/03/14 10:49:41;;;;;;;1.33;1.23;;;;;;;;;;5067011;28;20033;-60
2021/03/14 10:52:15;;;;;;;1.92;0.40;;;;;;;;;;5051658;28;20029;-60
2021/03/14 10:54:45;;;;;;;2.40;0.40;;;;;;;;;;5050550;28;20028;-59
2021/03/14 10:57:18;;;;;;;0.17;0.17;;;;;;;;;;5047933;28;20550;-60
2021/03/14 10:59:51;;;;;;;13.70;1.27;;;;;;;;;;5045594;28;20136;-59
2021/03/14 11:02:35;;;;;;;31.23;1.20;;;;;;;;;;5052333;28;20533;-59
2021/03/14 11:05:04;;;;;;;5.38;0.88;;;;;;;;;;5078282;28;20044;-59
2021/03/14 11:07:36;;;;;;;0.25;0.20;;;;;;;;;;5052667;28;20511;-59
2021/03/14 11:10:17;;;;;;;3.10;0.60;;;;;;;;;;5050743;28;20091;-59
2021/03/14 11:12:50;;;;;;;4.07;0.35;;;;;;;;;;5052505;28;20032;-59
2021/03/14 11:15:22;;;;;;;1.00;0.38;;;;;;;;;;5051564;28;20395;-60
2021/03/14 11:18:02;;;;;;;2.70;2.50;;;;;;;;;;5052592;28;20091;-59
2021/03/14 11:20:48;;;;;;;0.73;0.47;;;;;;;;;;5048909;28;20534;-60
2021/03/14 11:23:17;;;;;;;0.30;0.30;;;;;;;;;;5053046;28;20017;-59
2021/03/14 11:25:43;;;;;;;1.42;0.82;;;;;;;;;;5052834;28;20075;-59
2021/03/14 11:28:13;;;;;;;0.70;0.30;;;;;;;;;;5051592;28;20040;-59
2021/03/14 11:30:42;;;;;;;3.75;0.85;;;;;;;;;;5051704;28;20355;-59
2021/03/14 11:33:09;;;;;;;2.33;0.82;;;;;;;;;;5051476;28;20103;-59
2021/03/14 11:35:43;;;;;;;0.40;0.40;;;;;;;;;;5051544;28;20083;-59
2021/03/14 11:38:26;;;;;;;5.57;1.85;;;;;;;;;;5050374;28;20094;-59
2021/03/14 11:41:12;;;;;;;0.88;0.57;;;;;;;;;;5050561;28;20048;-59
2021/03/14 11:43:47;;;;;;;;;;;;;;;;;;5049499;28;20039;-60
2021/03/14 11:46:19;;;;;;;4.95;0.77;;;;;;;;;;5050892;28;19944;-59
2021/03/14 11:48:52;;;;;;;0.13;0.13;;;;;;;;;;5050900;28;20104;-59
2021/03/14 11:51:22;;;;;;;3.03;2.05;;;;;;;;;;5050422;28;20479;-59
2021/03/14 11:53:49;;;;;;;20.95;2.03;;;;;;;;;;5049936;28;20121;-60
2021/03/14 11:56:16;;;;;;;0.75;0.25;;;;;;;;;;5050482;28;20021;-59
2021/03/14 11:58:47;;;;;;;1.65;0.32;;;;;;;;;;5048098;28;20079;-60
2021/03/14 12:01:16;;;;;;;0.40;0.30;;;;;;;;;;5047030;28;20053;-59
2021/03/14 12:03:45;;;;;;;0.75;0.70;;;;;;;;;;5041871;28;20032;-59
2021/03/14 12:06:15;;;;;;;1.77;0.40;;;;;;;;;;5042653;28;20549;-59
2021/03/14 12:09:07;;;;;;;4.50;0.88;;;;;;;;;;5043697;28;20184;-60
2021/03/14 12:11:38;;;;;;;3.33;0.65;;;;;;;;;;5047866;28;20029;-59
2021/03/14 12:14:07;;;;;;;4.93;0.73;;;;;;;;;;5047520;28;20501;-58
2021/03/14 12:16:56;;;;;;;0.10;0.10;;;;;;;;;;5047556;28;20025;-59
2021/03/14 12:19:30;;;;;;;0.13;0.13;;;;;;;;;;5062127;28;20181;-59
2021/03/14 12:21:56;;;;;;;18.40;3.13;;;;;;;;;;5059608;28;20055;-59
2021/03/14 12:24:23;;;;;;;3.65;0.45;;;;;;;;;;5045428;28;20047;-59
2021/03/14 12:26:49;;;;;;;2.40;0.40;;;;;;;;;;5050861;28;20151;-59
2021/03/14 12:29:25;;;;;;;1.85;0.63;;;;;;;;;;5057740;28;20033;-59
2021/03/14 12:31:57;;;;;;;0.10;0.10;;;;;;;;;;5062667;28;20020;-60
2021/03/14 12:34:23;;;;;;;0.10;0.10;;;;;;;;;;5065013;28;20036;-59
2021/03/14 12:36:53;;;;;;;3.45;1.05;;;;;;;;;;5061688;28;20020;-60
2021/03/14 12:39:32;;;;;;;2.05;1.05;;;;;;;;;;5061687;28;20068;-60
2021/03/14 12:41:58;;;;;;;8.15;1.25;;;;;;;;;;5060945;28;20020;-60
2021/03/14 12:44:24;;;;;;;0.90;0.10;;;;;;;;;;5062035;28;20034;-59
2021/03/14 12:46:50;;;;;;;3.67;0.68;;;;;;;;;;5067200;28;20039;-59
2021/03/14 12:49:17;;;;;;;0.65;0.65;;;;;;;;;;5058941;28;20437;-64
2021/03/14 12:51:44;;;;;;;0.10;0.10;;;;;;;;;;5055307;28;20033;-64
2021/03/14 12:54:13;;;;;;;0.55;0.32;;;;;;;;;;5060806;28;20086;-63
2021/03/14 12:56:39;;;;;;;4.00;0.55;;;;;;;;;;5062311;28;20483;-63
2021/03/14 12:59:09;;;;;;;2.22;1.17;;;;;;;;;;5057417;28;20490;-64
2021/03/14 13:01:37;;;;;;;5.88;0.38;;;;;;;;;;5061142;28;20030;-64
2021/03/14 13:04:03;;;;;;;1.48;0.82;;;;;;;;;;5062550;28;20028;-64
2021/03/14 13:06:30;;;;;;;4.88;0.60;;;;;;;;;;5055871;28;20029;-64
2021/03/14 13:08:56;;;;;;;3.42;1.27;;;;;;;;;;5059622;28;20016;-64
2021/03/14 13:11:23;;;;;;;1.98;0.57;;;;;;;;;;5062005;28;20029;-64
2021/03/14 13:13:49;;;;;;;13.00;0.88;;;;;;;;;;5065508;28;20012;-59
2021/03/14 13:16:15;;;;;;;1.90;1.33;;;;;;;;;;5055745;28;20020;-64
2021/03/14 13:18:41;;;;;;;0.15;0.15;;;;;;;;;;5046096;28;20037;-62
2021/03/14 13:21:07;;;;;;;0.10;0.10;;;;;;;;;;5046245;28;20025;-63
2021/03/14 13:23:34;;;;;;;3.25;1.02;;;;;;;;;;5045927;28;20029;-62
2021/03/14 13:26:01;;;;;;;0.40;0.40;;;;;;;;;;5049591;28;20372;-59
2021/03/14 13:28:29;;;;;;;0.70;0.15;;;;;;;;;;5048191;28;20742;-60
2021/03/14 13:30:55;;;;;;;2.17;0.88;;;;;;;;;;5046722;28;20428;-59
2021/03/14 13:33:24;;;;;;;4.72;1.50;;;;;;;;;;5049743;28;20032;-59
2021/03/14 13:35:50;;;;;;;0.98;0.32;;;;;;;;;;5049696;28;20056;-60
2021/03/14 13:38:16;;;;;;;6.53;0.85;;;;;;;;;;5050583;28;20040;-59
2021/03/14 13:40:42;;;;;;;2.47;0.98;;;;;;;;;;5049962;28;20525;-59
2021/03/14 13:43:08;;;;;;;0.15;0.15;;;;;;;;;;5049890;28;20025;-60
2021/03/14 13:45:34;;;;;;;0.10;0.10;;;;;;;;;;5049208;28;20422;-60
2021/03/14 13:48:01;;;;;;;1.92;0.40;;;;;;;;;;5047867;28;20090;-59
2021/03/14 13:50:27;;;;;;;6.15;1.77;;;;;;;;;;5048292;28;20086;-61
2021/03/14 13:52:54;;;;;;;7.13;1.52;;;;;;;;;;5050294;28;20368;-60
2021/03/14 13:55:20;;;;;;;0.85;0.52;;;;;;;;;;5040843;28;20071;-60
2021/03/14 13:57:46;;;;;;;2.22;1.02;;;;;;;;;;5045885;28;20028;-60
2021/03/14 14:00:13;;;;;;;5.07;1.05;;;;;;;;;;5044750;28;20048;-60
2021/03/14 14:02:41;;;;;;;7.90;0.50;;;;;;;;;;5050079;28;20802;-59
2021/03/14 14:05:07;;;;;;;0.10;0.10;;;;;;;;;;5049534;28;20507;-60
2021/03/14 14:07:33;;;;;;;6.32;0.65;;;;;;;;;;5048467;28;20027;-60
2021/03/14 14:10:00;;;;;;;2.83;0.47;;;;;;;;;;5049640;28;20017;-60
2021/03/14 14:12:26;;;;;;;0.30;0.30;;;;;;;;;;5053493;28;20055;-59
2021/03/14 14:14:52;;;;;;;3.60;0.40;;;;;;;;;;5053439;28;20021;-60
2021/03/14 14:17:18;;;;;;;2.20;0.40;;;;;;;;;;5053244;28;20025;-60
2021/03/14 14:19:45;;;;;;;3.10;2.55;;;;;;;;;;5045666;28;20455;-61
2021/03/14 14:22:11;;;;;;;7.13;1.00;;;;;;;;;;5052470;28;20025;-60
2021/03/14 14:24:40;;;;;;;0.40;0.40;;;;;;;;;;5054020;28;20048;-61
2021/03/14 14:27:07;;;;;;;0.20;0.20;;;;;;;;;;5053033;28;20037;-60
2021/03/14 14:29:35;;;;;;;0.80;0.35;;;;;;;;;;5053723;28;20394;-60
2021/03/14 14:32:01;;;;;;;3.70;0.10;;;;;;;;;;5053510;28;20434;-59
2021/03/14 14:34:27;;;;;;;0.60;0.47;;;;;;;;;;5053476;28;20033;-60
2021/03/14 14:36:53;;;;;;;8.13;0.75;;;;;;;;;;5053876;28;20100;-60
2021/03/14 14:39:20;;;;;;;0.68;0.68;;;;;;;;;;5050741;28;20029;-60
2021/03/14 14:41:46;;;;;;;0.20;0.20;;;;;;;;;;5049281;28;20475;-61
2021/03/14 14:44:13;;;;;;;1.40;1.08;;;;;;;;;;5053317;28;20047;-60
2021/03/14 14:46:39;;;;;;;12.32;1.17;;;;;;;;;;5051849;28;20033;-60
2021/03/14 14:49:05;;;;;;;0.10;0.10;;;;;;;;;;5053311;28;20039;-60
2021/03/14 14:51:33;;;;;;;0.10;0.10;;;;;;;;;;5051168;28;20471;-60
2021/03/14 14:54:00;;;;;;;2.72;0.50;;;;;;;;;;5052680;28;20407;-60
2021/03/14 14:56:26;;;;;;;0.25;0.20;;;;;;;;;;5052965;28;20143;-60
2021/03/14 14:58:53;;;;;;;0.75;0.75;;;;;;;;;;5052508;28;20051;-60
2021/03/14 15:01:19;;;;;;;6.90;0.95;;;;;;;;;;5052541;28;20027;-60
2021/03/14 15:03:45;;;;;;;2.30;0.40;;;;;;;;;;5052644;28;20727;-60
2021/03/14 15:06:11;;;;;;;2.85;0.43;;;;;;;;;;5052168;28;20021;-59
2021/03/14 15:08:37;;;;;;;4.53;0.80;;;;;;;;;;5052369;28;20055;-60
2021/03/14 15:11:03;;;;;;;3.95;1.17;;;;;;;;;;5052075;28;20068;-59
2021/03/14 15:13:29;;;;;;;0.30;0.30;;;;;;;;;;5053527;28;20415;-61
2021/03/14 15:15:55;;;;;;;2.17;0.47;;;;;;;;;;5052062;28;20104;-59
2021/03/14 15:18:22;;;;;;;6.18;1.45;;;;;;;;;;5050613;28;20078;-59
2021/03/14 15:20:49;;;;;;;9.25;1.10;;;;;;;;;;5051456;28;20025;-60
2021/03/14 15:23:15;;;;;;;0.30;0.22;;;;;;;;;;5052658;28;20040;-59
2021/03/14 15:25:41;;;;;;;2.28;0.30;;;;;;;;;;5052493;28;20029;-60
2021/03/14 15:28:07;;;;;;;11.20;4.95;;;;;;;;;;5052391;28;20083;-60
2021/03/14 15:30:33;;;;;;;1.10;0.30;;;;;;;;;;5052451;28;20021;-60
2021/03/14 15:32:59;;;;;;;0.63;0.50;;;;;;;;;;5052835;28;20021;-60
2021/03/14 15:35:26;;;;;;;4.05;1.33;;;;;;;;;;5052915;28;20406;-59
2021/03/14 15:37:52;;;;;;;6.80;0.70;;;;;;;;;;5052943;28;20074;-59
2021/03/14 15:40:18;;;;;;;0.10;0.10;;;;;;;;;;5051849;28;20037;-60
2021/03/14 15:42:44;;;;;;;3.45;0.80;;;;;;;;;;5052604;28;20617;-60
2021/03/14 15:45:10;;;;;;;1.55;0.52;;;;;;;;;;5052443;28;20481;-60
2021/03/14 15:47:37;;;;;;;0.95;0.95;;;;;;;;;;5052769;28;20032;-60
2021/03/14 15:50:04;;;;;;;7.70;0.52;;;;;;;;;;5052341;28;20048;-59
2021/03/14 15:52:30;;;;;;;2.08;0.85;;;;;;;;;;5051972;28;20070;-60
2021/03/14 15:54:56;;;;;;;16.15;1.55;;;;;;;;;;5051878;28;20021;-60
2021/03/14 15:57:22;;;;;;;1.33;0.38;;;;;;;;;;5051400;28;20407;-61
2021/03/14 15:59:48;;;;;;;0.10;0.10;;;;;;;;;;5049758;28;20081;-59
2021/03/14 16:02:15;;;;;;;0.10;0.10;;;;;;;;;;5051968;28;20428;-59
2021/03/14 16:04:41;;;;;;;2.90;0.82;;;;;;;;;;5063114;28;20028;-59
2021/03/14 16:07:08;;;;;;;0.10;0.10;;;;;;;;;;5058197;28;20074;-60
2021/03/14 16:09:34;;;;;;;0.70;0.65;;;;;;;;;;5060861;28;20711;-65
2021/03/14 16:12:01;;;;;;;5.47;0.40;;;;;;;;;;5054302;28;20020;-65
2021/03/14 16:14:27;;;;;;;3.05;0.55;;;;;;;;;;5056879;28;20038;-66
2021/03/14 16:16:53;;;;;;;3.10;1.20;;;;;;;;;;5063219;28;20442;-61
2021/03/14 16:19:19;;;;;;;0.43;0.43;;;;;;;;;;5056949;28;20072;-66
2021/03/14 16:21:46;;;;;;;0.13;0.13;;;;;;;;;;5061014;28;20497;-65
2021/03/14 16:24:12;;;;;;;2.08;0.47;;;;;;;;;;5054063;28;20036;-66
2021/03/14 16:26:39;;;;;;;1.83;1.27;;;;;;;;;;5063207;28;20398;-67
2021/03/14 16:29:05;;;;;;;0.10;0.10;;;;;;;;;;5061576;28;20493;-65
2021/03/14 16:31:31;;;;;;;0.10;0.10;;;;;;;;;;5063304;28;20044;-66
2021/03/14 16:33:57;;;;;;;0.65;0.38;;;;;;;;;;5060325;28;20021;-66
2021/03/14 16:36:23;;;;;;;1.48;1.05;;;;;;;;;;5062002;28;20037;-65
2021/03/14 16:38:50;;;;;;;1.27;1.23;;;;;;;;;;5062285;28;20631;-65
2021/03/14 16:41:16;;;;;;;1.98;1.77;;;;;;;;;;5057512;28;20013;-65
2021/03/14 16:43:43;;;;;;;2.30;0.88;;;;;;;;;;5065209;28;20025;-65
2021/03/14 16:46:10;;;;;;;2.17;0.45;;;;;;;;;;5060457;28;20032;-65
2021/03/14 16:48:36;;;;;;;1.38;0.20;;;;;;;;;;5059658;28;20052;-66
2021/03/14 16:51:02;;;;;;;0.10;0.10;;;;;;;;;;5061939;28;20036;-66
2021/03/14 16:53:28;;;;;;;1.50;0.28;;;;;;;;;;5063083;28;20027;-64
2021/03/14 16:55:54;;;;;;;0.60;0.47;;;;;;;;;;5064148;28;20099;-65
2021/03/14 16:58:21;;;;;;;1.55;1.33;;;;;;;;;;5063069;28;20095;-66
2021/03/14 17:00:47;;;;;;;2.65;0.93;;;;;;;;;;5060924;28;20103;-66
2021/03/14 17:03:13;;;;;;;0.47;0.47;;;;;;;;;;5051347;28;20111;-60
2021/03/14 17:05:40;;;;;;;3.45;1.90;;;;;;;;;;5060109;28;20030;-61
2021/03/14 17:08:06;;;;;;;0.32;0.32;;;;;;;;;;5059457;28;20040;-61
2021/03/14 17:10:33;;;;;;;0.85;0.57;;;;;;;;;;5063130;28;20033;-58
2021/03/14 17:13:00;;;;;;;2.90;0.28;;;;;;;;;;5059025;28;20020;-61
2021/03/14 17:15:26;;;;;;;0.10;0.10;;;;;;;;;;5059013;28;20017;-59
2021/03/14 17:17:52;;;;;;;0.90;0.40;;;;;;;;;;5060223;28;20033;-59
2021/03/14 17:20:19;;;;;;;3.70;1.30;;;;;;;;;;5057086;28;20033;-59
2021/03/14 17:22:45;;;;;;;1.75;0.43;;;;;;;;;;5058548;28;20017;-63
2021/03/14 17:25:11;;;;;;;0.90;0.55;;;;;;;;;;5051082;28;20024;-62
2021/03/14 17:27:38;;;;;;;0.22;0.22;;;;;;;;;;5052913;28;20025;-62
2021/03/14 17:30:08;;;;;;;0.40;0.40;;;;;;;;;;5048657;28;20021;-62
2021/03/14 17:32:34;;;;;;;9.32;2.45;;;;;;;;;;5048842;28;20082;-62
2021/03/14 17:35:00;;;;;;;0.10;0.10;;;;;;;;;;5048385;28;20071;-62
2021/03/14 17:37:26;;;;;;;4.32;2.42;;;;;;;;;;5076212;28;20075;-62
2021/03/14 17:39:52;;;;;;;1.27;0.25;;;;;;;;;;5058815;28;20060;-62
2021/03/14 17:42:18;;;;;;;0.73;0.45;;;;;;;;;;5058969;28;20100;-63
2021/03/14 17:44:44;;;;;;;0.73;0.68;;;;;;;;;;5058635;28;20077;-62
2021/03/14 17:47:11;;;;;;;15.13;2.17;;;;;;;;;;5052317;28;20549;-63
2021/03/14 17:49:37;;;;;;;0.70;0.47;;;;;;;;;;5052892;28;20055;-62
2021/03/14 17:52:04;;;;;;;6.05;1.15;;;;;;;;;;5049094;28;20052;-64
2021/03/14 17:54:31;;;;;;;3.70;0.70;;;;;;;;;;5048418;28;20023;-66
2021/03/14 17:56:57;;;;;;;4.40;1.33;;;;;;;;;;5046738;28;20077;-65
2021/03/14 17:59:23;;;;;;;1.00;0.20;;;;;;;;;;5049244;28;20059;-62
2021/03/14 18:01:49;;;;;;;0.88;0.70;;;;;;;;;;5049745;28;20025;-65
2021/03/14 18:04:18;;;;;;;3.25;0.57;;;;;;;;;;5049629;28;20029;-65
2021/03/14 18:06:44;;;;;;;2.63;1.05;;;;;;;;;;5043608;28;20544;-60
2021/03/14 18:09:10;;;;;;;1.27;0.25;;;;;;;;;;5046197;28;20028;-61
2021/03/14 18:11:36;;;;;;;3.95;0.68;;;;;;;;;;5046176;28;20091;-60
2021/03/14 18:14:03;;;;;;;0.43;0.30;;;;;;;;;;5049593;28;20055;-60
2021/03/14 18:16:29;;;;;;;4.45;1.10;;;;;;;;;;5050862;28;20112;-61
2021/03/14 18:18:55;;;;;;;0.65;0.25;;;;;;;;;;5048551;28;20021;-60
2021/03/14 18:21:21;;;;;;;9.80;2.83;;;;;;;;;;5050135;28;20033;-61
2021/03/14 18:23:47;;;;;;;0.10;0.10;;;;;;;;;;5049853;28;20025;-60
2021/03/14 18:26:13;;;;;;;0.35;0.35;;;;;;;;;;5049573;28;20501;-61
2021/03/14 18:28:39;;;;;;;0.17;0.10;;;;;;;;;;5050832;28;20028;-60
2021/03/14 18:31:06;;;;;;;2.65;0.50;;;;;;;;;;5050108;28;20029;-60
2021/03/14 18:33:32;;;;;;;0.50;0.25;;;;;;;;;;5049564;28;20024;-60
2021/03/14 18:35:58;;;;;;;0.10;0.10;;;;;;;;;;5050095;28;20418;-61
2021/03/14 18:38:24;;;;;;;9.65;0.63;;;;;;;;;;5049322;28;20021;-60
2021/03/14 18:40:51;;;;;;;7.38;3.15;;;;;;;;;;5049468;28;20052;-60
2021/03/14 18:43:18;;;;;;;10.65;2.60;;;;;;;;;;5050367;28;20111;-61
2021/03/14 18:45:44;;;;;;;4.55;1.13;;;;;;;;;;5049996;28;20395;-60
2021/03/14 18:48:10;;;;;;;5.72;1.95;;;;;;;;;;5049853;28;20021;-61
2021/03/14 18:50:37;;;;;;;1.60;1.38;;;;;;;;;;5050081;28;20036;-61
2021/03/14 18:53:03;;;;;;;5.00;4.72;;;;;;;;;;5049857;28;20025;-60
2021/03/14 18:55:29;;;;;;;3.72;1.45;;;;;;;;;;5049849;28;20059;-60
2021/03/14 18:57:59;;;;;;;6.03;2.55;;;;;;;;;;5051528;28;20017;-60
2021/03/14 19:00:26;;;;;;;20.92;2.75;;;;;;;;;;5052376;28;20528;-61
2021/03/14 19:02:53;;;;;;;2.38;2.28;;;;;;;;;;5046072;28;20505;-61
2021/03/14 19:05:19;;;;;;;7.25;2.28;;;;;;;;;;5041980;28;20134;-61
2021/03/14 19:07:45;;;;;;;4.80;4.20;;;;;;;;;;5052312;28;20032;-61
2021/03/14 19:10:12;;;;;;;4.97;0.90;;;;;;;;;;5052730;28;20119;-60
2021/03/14 19:12:38;;;;;;;6.22;5.03;;;;;;;;;;5052099;28;20017;-61
2021/03/14 19:15:05;;;;;;;12.35;2.97;;;;;;;;;;5049870;28;20037;-61
2021/03/14 19:17:31;;;;;;;5.13;2.85;;;;;;;;;;5048794;28;20033;-61
2021/03/14 19:19:57;;;;;;;15.45;1.75;;;;;;;;;;5048588;28;20434;-61
2021/03/14 19:22:24;;;;;;;3.30;2.17;;;;;;;;;;5046703;28;20036;-60
2021/03/14 19:24:50;;;;;;;0.20;0.20;;;;;;;;;;5052151;28;20029;-61
2021/03/14 19:27:16;;;;;;;0.88;0.70;;;;;;;;;;5052163;28;20096;-61
2021/03/14 19:29:42;;;;;;;2.42;1.75;;;;;;;;;;5051824;28;20028;-61
2021/03/14 19:32:08;;;;;;;11.07;1.27;;;;;;;;;;5052139;28;20102;-61
2021/03/14 19:34:34;;;;;;;10.70;2.33;;;;;;;;;;5048138;28;20025;-61
2021/03/14 19:37:01;;;;;;;6.57;1.40;;;;;;;;;;5045912;28;20068;-62
2021/03/14 19:39:27;;;;;;;1.45;0.77;;;;;;;;;;5048071;28;20041;-61
2021/03/14 19:41:53;;;;;;;3.25;1.27;;;;;;;;;;5049788;28;20513;-60
2021/03/14 19:44:20;;;;;;;4.78;1.95;;;;;;;;;;5049746;28;20036;-60
2021/03/14 19:46:46;;;;;;;14.68;1.92;;;;;;;;;;5038340;28;20029;-60
2021/03/14 19:49:12;;;;;;;8.90;3.08;;;;;;;;;;5048038;28;20422;-60
2021/03/14 19:51:38;;;;;;;13.70;3.85;;;;;;;;;;5051091;28;20049;-60
2021/03/14 19:54:04;;;;;;;4.47;2.35;;;;;;;;;;5053256;28;20095;-61
2021/03/14 19:56:31;;;;;;;7.45;1.00;;;;;;;;;;5050289;28;20029;-61
2021/03/14 19:58:57;;;;;;;2.90;0.77;;;;;;;;;;5044760;28;20048;-61
2021/03/14 20:01:23;;;;;;;2.63;2.22;;;;;;;;;;5045532;28;20531;-60
2021/03/14 20:03:49;;;;;;;4.13;2.17;;;;;;;;;;5049025;28;20368;-60
2021/03/14 20:06:15;;;;;;;1.65;0.40;;;;;;;;;;5046696;28;20033;-61
2021/03/14 20:08:41;;;;;;;6.90;1.33;;;;;;;;;;5048987;28;20083;-61
2021/03/14 20:11:07;;;;;;;2.33;1.27;;;;;;;;;;5048110;28;20040;-60
2021/03/14 20:13:39;;;;;;;5.18;1.65;;;;;;;;;;5048260;28;20021;-61
2021/03/14 20:16:05;;;;;;;16.88;2.28;;;;;;;;;;5047452;28;20024;-61
2021/03/14 20:18:31;;;;;;;17.98;6.35;;;;;;;;;;5047823;28;20021;-61
2021/03/14 20:20:57;;;;;;;8.50;1.70;;;;;;;;;;5046930;28;20049;-60
2021/03/14 20:23:23;;;;;;;17.08;3.75;;;;;;;;;;5048969;28;20049;-61
2021/03/14 20:25:50;;;;;;;0.40;0.40;;;;;;;;;;5049596;28;20021;-60
2021/03/14 20:28:17;;;;;;;8.05;1.10;;;;;;;;;;5049348;28;20013;-60
2021/03/14 20:30:44;;;;;;;5.85;0.85;;;;;;;;;;5048947;28;20028;-61
2021/03/14 20:33:10;;;;;;;3.92;0.98;;;;;;;;;;5048671;28;20078;-61
2021/03/14 20:35:37;;;;;;;3.10;2.40;;;;;;;;;;5046337;28;20027;-60
2021/03/14 20:38:03;;;;;;;1.90;0.90;;;;;;;;;;5049368;28;20035;-61
2021/03/14 20:40:29;;;;;;;10.30;1.88;;;;;;;;;;5051575;28;20765;-61
2021/03/14 20:42:56;;;;;;;13.73;3.97;;;;;;;;;;5047342;28;20048;-61
2021/03/14 20:45:22;;;;;;;1.95;1.15;;;;;;;;;;5050658;28;20064;-61
2021/03/14 20:47:48;;;;;;;16.88;4.68;;;;;;;;;;5050734;28;20062;-61
2021/03/14 20:50:15;;;;;;;16.55;3.30;;;;;;;;;;5051012;28;20398;-62
2021/03/14 20:52:42;;;;;;;3.38;0.98;;;;;;;;;;5051206;28;20057;-61